createdAt,value
2023-04-17T00:02:16.909Z,94673.81
2023-04-17T00:05:23.161Z,94669.22
2023-04-17T00:08:25.437Z,94668.50
2023-04-17T00:11:27.543Z,94662.59
2023-04-17T00:14:29.698Z,94653.75
2023-04-17T00:17:31.915Z,94649.53
2023-04-17T00:20:34.214Z,94663.03
2023-04-17T00:23:36.193Z,94654.13
2023-04-17T00:26:38.249Z,94679.72
2023-04-17T00:29:40.346Z,94677.91
2023-04-17T00:32:42.421Z,94664.13
2023-04-17T00:35:44.627Z,94665.50
2023-04-17T00:38:46.731Z,94670.31
2023-04-17T00:41:48.846Z,94677.28
2023-04-17T00:44:50.917Z,94668.94
2023-04-17T00:47:53.578Z,94696.13
2023-04-17T00:51:02.368Z,94666.22
2023-04-17T00:54:04.851Z,94674.75
2023-04-17T00:57:07.151Z,94674.38
2023-04-17T01:00:10.581Z,94663.41
2023-04-17T01:03:13.103Z,94677.84
2023-04-17T01:06:15.609Z,94683.50
2023-04-17T01:09:17.855Z,94676.56
2023-04-17T01:12:22.632Z,94685.25
2023-04-17T01:15:24.839Z,94657.34
2023-04-17T01:18:27.152Z,94660.47
2023-04-17T01:21:29.313Z,94662.06
2023-04-17T01:24:31.393Z,94661.03
2023-04-17T01:27:35.293Z,94661.78
2023-04-17T01:30:37.372Z,94668.19
2023-04-17T01:33:39.487Z,94655.19
2023-04-17T01:36:43.924Z,94661.03
2023-04-17T01:39:46.288Z,94665.41
2023-04-17T01:42:48.358Z,94658.22
2023-04-17T01:45:50.407Z,94650.56
2023-04-17T01:48:52.679Z,94659.41
2023-04-17T01:51:54.749Z,94644.31
2023-04-17T01:54:56.755Z,94654.19
2023-04-17T01:57:58.864Z,94657.94
2023-04-17T02:01:01.074Z,94677.06
2023-04-17T02:04:03.410Z,94665.44
2023-04-17T02:07:05.681Z,94666.56
2023-04-17T02:10:10.457Z,94656.72
2023-04-17T02:13:12.628Z,94662.69
2023-04-17T02:16:14.833Z,94654.78
2023-04-17T02:19:30.919Z,94661.13
2023-04-17T02:22:41.147Z,94649.69
2023-04-17T02:25:43.503Z,94644.69
2023-04-17T02:28:50.152Z,94664.75
2023-04-17T02:31:57.106Z,94646.66
2023-04-17T02:35:01.058Z,94653.59
2023-04-17T02:38:03.244Z,94663.47
2023-04-17T02:41:06.184Z,94675.31
2023-04-17T02:44:08.444Z,94644.94
2023-04-17T02:47:13.056Z,94670.22
2023-04-17T02:50:23.829Z,94668.06
2023-04-17T02:53:52.354Z,94676.72
2023-04-17T02:57:01.215Z,94658.28
2023-04-17T03:00:26.084Z,94661.47
2023-04-17T03:03:31.226Z,94678.72
2023-04-17T03:06:33.704Z,94660.44
2023-04-17T03:09:36.742Z,94670.38
2023-04-17T03:12:39.337Z,94650.31
2023-04-17T03:15:41.405Z,94667.09
2023-04-17T03:18:43.565Z,94657.56
2023-04-17T03:21:46.250Z,94663.13
2023-04-17T03:24:48.632Z,94671.72
2023-04-17T03:27:50.856Z,94658.97
2023-04-17T03:30:54.959Z,94664.97
2023-04-17T03:34:04.496Z,94658.28
2023-04-17T03:37:06.499Z,94665.56
2023-04-17T03:40:08.960Z,94668.03
2023-04-17T03:43:11.355Z,94684.63
2023-04-17T03:46:13.594Z,94675.59
2023-04-17T03:49:15.922Z,94682.69
2023-04-17T03:52:17.931Z,94686.09
2023-04-17T03:55:19.994Z,94683.78
2023-04-17T03:58:22.332Z,94681.22
2023-04-17T04:01:28.293Z,94698.81
2023-04-17T04:04:30.806Z,94690.38
2023-04-17T04:07:36.721Z,94674.25
2023-04-17T04:10:38.845Z,94698.47
2023-04-17T04:13:41.202Z,94693.19
2023-04-17T04:16:45.718Z,94688.97
2023-04-17T04:19:48.135Z,94690.31
2023-04-17T04:22:50.760Z,94686.66
2023-04-17T04:25:52.647Z,94705.28
2023-04-17T04:28:54.848Z,94694.88
2023-04-17T04:31:59.886Z,94699.34
2023-04-17T04:35:05.818Z,94702.47
2023-04-17T04:38:19.719Z,94697.06
2023-04-17T04:41:25.807Z,94713.53
2023-04-17T04:44:28.011Z,94714.13
2023-04-17T04:47:30.337Z,94718.06
2023-04-17T04:50:32.680Z,94691.50
2023-04-17T04:53:37.735Z,94709.50
2023-04-17T04:56:45.022Z,94695.66
2023-04-17T04:59:47.135Z,94691.19
2023-04-17T05:02:49.394Z,94703.00
2023-04-17T05:05:51.576Z,94713.88
2023-04-17T05:08:53.740Z,94721.97
2023-04-17T05:11:55.893Z,94707.41
2023-04-17T05:14:58.015Z,94702.91
2023-04-17T05:18:00.028Z,94710.66
2023-04-17T05:21:02.501Z,94730.88
2023-04-17T05:24:04.555Z,94734.00
2023-04-17T05:27:06.538Z,94710.44
2023-04-17T05:30:09.401Z,94710.78
2023-04-17T05:33:11.617Z,94726.69
2023-04-17T05:36:13.764Z,94731.50
2023-04-17T05:39:15.907Z,94724.41
2023-04-17T05:42:18.145Z,94721.19
2023-04-17T05:45:20.211Z,94745.66
2023-04-17T05:48:22.839Z,94722.50
2023-04-17T05:51:25.137Z,94745.53
2023-04-17T05:54:30.449Z,94738.06
2023-04-17T05:57:34.503Z,94736.50
2023-04-17T06:00:36.946Z,94746.34
2023-04-17T06:03:39.276Z,94745.78
2023-04-17T06:06:41.531Z,94736.72
2023-04-17T06:09:43.543Z,94733.25
2023-04-17T06:12:46.754Z,94742.00
2023-04-17T06:15:49.770Z,94748.22
2023-04-17T06:18:51.827Z,94743.91
2023-04-17T06:21:54.017Z,94736.47
2023-04-17T06:24:56.119Z,94755.75
2023-04-17T06:28:01.938Z,94737.97
2023-04-17T06:31:06.754Z,94762.44
2023-04-17T06:34:09.675Z,94742.75
2023-04-17T06:37:11.871Z,94743.75
2023-04-17T06:40:14.136Z,94740.09
2023-04-17T06:43:16.772Z,94728.84
2023-04-17T06:46:18.941Z,94740.34
2023-04-17T06:49:21.384Z,94759.97
2023-04-17T06:52:23.925Z,94727.31
2023-04-17T06:55:27.099Z,94763.81
2023-04-17T06:58:29.357Z,94764.28
2023-04-17T07:01:31.567Z,94757.53
2023-04-17T07:04:33.825Z,94752.88
2023-04-17T07:07:36.521Z,94759.81
2023-04-17T07:10:38.588Z,94749.94
2023-04-17T07:13:40.646Z,94772.09
2023-04-17T07:16:42.825Z,94777.03
2023-04-17T07:19:45.871Z,94764.28
2023-04-17T07:22:49.933Z,94768.53
2023-04-17T07:25:54.518Z,94780.72
2023-04-17T07:28:56.403Z,94772.88
2023-04-17T07:31:58.806Z,94784.88
2023-04-17T07:35:00.988Z,94787.63
2023-04-17T07:38:04.345Z,94772.38
2023-04-17T07:41:06.853Z,94780.75
2023-04-17T07:44:09.085Z,94777.78
2023-04-17T07:47:11.209Z,94775.38
2023-04-17T07:50:13.606Z,94785.09
2023-04-17T07:53:15.777Z,94788.66
2023-04-17T07:56:17.758Z,94794.78
2023-04-17T07:59:19.984Z,94787.56
2023-04-17T08:02:22.969Z,94782.78
2023-04-17T08:05:25.582Z,94791.50
2023-04-17T08:08:27.641Z,94793.63
2023-04-17T08:11:29.635Z,94783.38
2023-04-17T08:14:32.055Z,94785.72
2023-04-17T08:17:35.479Z,94779.03
2023-04-17T08:20:38.786Z,94787.41
2023-04-17T08:23:41.884Z,94787.97
2023-04-17T08:26:49.440Z,94784.44
2023-04-17T08:30:22.013Z,94797.25
2023-04-17T08:33:24.028Z,94789.81
2023-04-17T08:36:26.240Z,94789.88
2023-04-17T08:39:28.574Z,94778.00
2023-04-17T08:42:34.828Z,94790.88
2023-04-17T08:45:39.314Z,94795.59
2023-04-17T08:48:41.439Z,94797.75
2023-04-17T08:51:43.692Z,94792.31
2023-04-17T08:54:48.936Z,94797.50
2023-04-17T08:57:56.401Z,94799.25
2023-04-17T09:01:10.879Z,94787.59
2023-04-17T09:04:37.467Z,94790.03
2023-04-17T09:07:41.758Z,94782.78
2023-04-17T09:10:46.164Z,94785.97
2023-04-17T09:13:48.186Z,94786.56
2023-04-17T09:16:54.855Z,94780.28
2023-04-17T09:20:09.297Z,94784.44
2023-04-17T09:23:11.689Z,94782.25
2023-04-17T09:26:15.375Z,94781.22
2023-04-17T09:29:17.771Z,94766.63
2023-04-17T09:32:19.932Z,94781.84
2023-04-17T09:35:28.210Z,94786.09
2023-04-17T09:38:40.827Z,94784.19
2023-04-17T09:41:42.830Z,94783.69
2023-04-17T09:44:45.100Z,94774.31
2023-04-17T09:47:48.407Z,94777.53
2023-04-17T09:50:50.828Z,94766.75
2023-04-17T09:53:54.169Z,94765.97
2023-04-17T09:56:56.382Z,94758.63
2023-04-17T10:00:01.409Z,94764.78
2023-04-17T10:03:03.650Z,94769.03
2023-04-17T10:06:06.626Z,94775.44
2023-04-17T10:09:08.711Z,94772.22
2023-04-17T10:12:14.655Z,94769.09
2023-04-17T10:15:16.860Z,94762.03
2023-04-17T10:18:23.688Z,94773.78
2023-04-17T10:21:26.638Z,94774.03
2023-04-17T10:24:29.170Z,94774.25
2023-04-17T10:27:33.954Z,94771.59
2023-04-17T10:30:55.808Z,94773.31
2023-04-17T10:33:58.073Z,94767.41
2023-04-17T10:37:01.387Z,94750.81
2023-04-17T10:40:09.787Z,94739.22
2023-04-17T10:43:14.825Z,94734.81
2023-04-17T10:46:16.799Z,94725.81
2023-04-17T10:49:21.622Z,94729.19
2023-04-17T10:52:32.719Z,94741.59
2023-04-17T10:55:48.943Z,94741.41
2023-04-17T10:58:59.660Z,94742.41
2023-04-17T11:02:04.381Z,94742.84
2023-04-17T11:05:07.452Z,94741.19
2023-04-17T11:08:10.082Z,94747.81
2023-04-17T11:11:12.065Z,94744.78
2023-04-17T11:14:16.519Z,94749.88
2023-04-17T11:17:21.619Z,94736.63
2023-04-17T11:20:32.202Z,94734.00
2023-04-17T11:23:34.684Z,94742.50
2023-04-17T11:26:47.737Z,94741.88
2023-04-17T11:29:49.699Z,94747.56
2023-04-17T11:32:52.155Z,94746.09
2023-04-17T11:35:54.873Z,94761.13
2023-04-17T11:38:57.379Z,94763.19
2023-04-17T11:42:00.576Z,94762.59
2023-04-17T11:45:07.591Z,94753.38
2023-04-17T11:48:11.533Z,94762.00
2023-04-17T11:51:18.306Z,94746.41
2023-04-17T11:54:30.914Z,94749.09
2023-04-17T11:57:42.330Z,94754.00
2023-04-17T12:00:44.495Z,94752.97
2023-04-17T12:03:49.901Z,94756.25
2023-04-17T12:06:52.624Z,94761.31
2023-04-17T12:09:56.996Z,94760.78
2023-04-17T12:12:59.076Z,94750.75
2023-04-17T12:16:01.180Z,94752.41
2023-04-17T12:19:03.390Z,94746.28
2023-04-17T12:22:05.552Z,94757.78
2023-04-17T12:25:07.886Z,94749.16
2023-04-17T12:28:09.925Z,94745.13
2023-04-17T12:31:12.403Z,94744.16
2023-04-17T12:34:15.083Z,94754.16
2023-04-17T12:37:18.935Z,94739.19
2023-04-17T12:40:24.671Z,94748.03
2023-04-17T12:43:26.752Z,94732.91
2023-04-17T12:46:28.796Z,94739.44
2023-04-17T12:49:30.848Z,94730.22
2023-04-17T12:52:33.061Z,94722.31
2023-04-17T12:55:38.590Z,94732.44
2023-04-17T12:58:40.770Z,94722.41
2023-04-17T13:01:42.789Z,94717.72
2023-04-17T13:04:44.720Z,94714.72
2023-04-17T13:07:46.716Z,94713.34
2023-04-17T13:10:48.706Z,94716.63
2023-04-17T13:13:50.768Z,94708.03
2023-04-17T13:16:53.905Z,94705.63
2023-04-17T13:19:56.449Z,94711.66
2023-04-17T13:22:58.949Z,94706.34
2023-04-17T13:26:01.176Z,94703.81
2023-04-17T13:29:03.892Z,94708.50
2023-04-17T13:32:06.385Z,94705.44
2023-04-17T13:35:09.707Z,94708.88
2023-04-17T13:38:11.720Z,94707.50
2023-04-17T13:41:13.537Z,94692.22
2023-04-17T13:44:16.368Z,94692.44
2023-04-17T13:47:18.308Z,94689.59
2023-04-17T13:50:20.274Z,94695.84
2023-04-17T13:53:22.223Z,94704.97
2023-04-17T13:56:24.714Z,94693.97
2023-04-17T13:59:26.725Z,94701.34
2023-04-17T14:02:29.049Z,94692.34
2023-04-17T14:05:31.744Z,94684.69
2023-04-17T14:08:33.882Z,94682.81
2023-04-17T14:11:35.904Z,94681.84
2023-04-17T14:14:39.018Z,94683.47
2023-04-17T14:17:43.268Z,94679.41
2023-04-17T14:20:45.502Z,94673.84
2023-04-17T14:23:48.830Z,94679.19
2023-04-17T14:26:50.688Z,94672.72
2023-04-17T14:29:52.500Z,94665.19
2023-04-17T14:32:54.506Z,94665.38
2023-04-17T14:35:59.212Z,94666.41
2023-04-17T14:39:01.156Z,94671.53
2023-04-17T14:42:03.339Z,94677.66
2023-04-17T14:45:06.274Z,94667.84
2023-04-17T14:48:08.164Z,94669.50
2023-04-17T14:51:14.065Z,94677.69
2023-04-17T14:54:16.047Z,94670.09
2023-04-17T14:57:17.958Z,94676.25
2023-04-17T15:00:20.927Z,94688.53
2023-04-17T15:03:22.941Z,94679.47
2023-04-17T15:06:25.038Z,94678.41
2023-04-17T15:09:27.052Z,94680.84
2023-04-17T15:12:29.493Z,94684.50
2023-04-17T15:15:31.463Z,94688.53
2023-04-17T15:18:34.703Z,94693.84
2023-04-17T15:21:37.324Z,94684.41
2023-04-17T15:24:39.428Z,94687.25
2023-04-17T15:27:41.227Z,94691.47
2023-04-17T15:30:43.098Z,94697.22
2023-04-17T15:33:47.379Z,94697.13
2023-04-17T15:36:49.350Z,94707.69
2023-04-17T15:39:53.943Z,94713.44
2023-04-17T15:42:55.989Z,94716.84
2023-04-17T15:45:59.642Z,94719.44
2023-04-17T15:49:08.951Z,94715.00
2023-04-17T15:52:23.691Z,94713.19
2023-04-17T15:55:25.719Z,94720.81
2023-04-17T15:58:29.492Z,94714.88
2023-04-17T16:01:31.455Z,94712.94
2023-04-17T16:04:33.450Z,94712.84
2023-04-17T16:07:35.891Z,94718.69
2023-04-17T16:10:38.002Z,94720.06
2023-04-17T16:13:40.285Z,94710.00
2023-04-17T16:16:42.561Z,94705.81
2023-04-17T16:19:44.482Z,94712.97
2023-04-17T16:22:46.483Z,94713.69
2023-04-17T16:25:50.260Z,94726.25
2023-04-17T16:28:52.523Z,94725.38
2023-04-17T16:31:55.136Z,94734.88
2023-04-17T16:34:57.302Z,94735.00
2023-04-17T16:38:01.258Z,94733.34
2023-04-17T16:41:04.624Z,94734.47
2023-04-17T16:44:07.018Z,94745.31
2023-04-17T16:47:13.886Z,94745.06
2023-04-17T16:50:16.345Z,94737.91
2023-04-17T16:53:18.340Z,94742.00
2023-04-17T16:56:20.241Z,94746.31
2023-04-17T16:59:22.929Z,94741.94
2023-04-17T17:02:25.100Z,94745.78
2023-04-17T17:05:27.097Z,94755.63
2023-04-17T17:08:29.578Z,94746.88
2023-04-17T17:11:31.704Z,94753.44
2023-04-17T17:14:33.638Z,94743.97
2023-04-17T17:17:35.542Z,94742.31
2023-04-17T17:20:37.613Z,94740.22
2023-04-17T17:23:39.698Z,94749.59
2023-04-17T17:26:41.761Z,94741.94
2023-04-17T17:29:43.696Z,94746.31
2023-04-17T17:32:45.836Z,94748.84
2023-04-17T17:35:48.576Z,94752.47
2023-04-17T17:38:55.933Z,94750.34
2023-04-17T17:41:58.175Z,94758.28
2023-04-17T17:45:00.179Z,94758.84
2023-04-17T17:48:02.143Z,94749.53
2023-04-17T17:51:04.214Z,94760.47
2023-04-17T17:54:06.400Z,94755.81
2023-04-17T17:57:08.683Z,94766.19
2023-04-17T18:00:12.216Z,94768.59
2023-04-17T18:03:17.512Z,94768.22
2023-04-17T18:06:19.680Z,94772.66
2023-04-17T18:09:21.581Z,94772.41
2023-04-17T18:12:25.130Z,94767.81
2023-04-17T18:15:27.354Z,94773.75
2023-04-17T18:18:29.603Z,94784.03
2023-04-17T18:21:32.317Z,94784.66
2023-04-17T18:24:34.995Z,94784.84
2023-04-17T18:27:37.415Z,94786.72
2023-04-17T18:30:39.484Z,94786.22
2023-04-17T18:33:45.456Z,94793.41
2023-04-17T18:36:47.670Z,94778.81
2023-04-17T18:39:49.966Z,94794.16
2023-04-17T18:42:52.214Z,94791.84
2023-04-17T18:45:54.837Z,94802.19
2023-04-17T18:48:57.846Z,94802.19
2023-04-17T18:51:59.966Z,94797.38
2023-04-17T18:55:02.034Z,94795.63
2023-04-17T18:58:06.016Z,94798.75
2023-04-17T19:01:11.268Z,94781.38
2023-04-17T19:04:13.594Z,94796.06
2023-04-17T19:07:15.971Z,94786.91
2023-04-17T19:10:18.520Z,94787.44
2023-04-17T19:13:20.821Z,94777.63
2023-04-17T19:16:24.092Z,94779.81
2023-04-17T19:19:27.692Z,94788.28
2023-04-17T19:22:30.141Z,94782.69
2023-04-17T19:25:32.346Z,94782.81
2023-04-17T19:28:35.851Z,94785.16
2023-04-17T19:31:40.419Z,94782.84
2023-04-17T19:34:43.713Z,94786.66
2023-04-17T19:37:46.014Z,94796.44
2023-04-17T19:41:15.277Z,94785.88
2023-04-17T19:44:17.701Z,94777.69
2023-04-17T19:47:19.888Z,94776.34
2023-04-17T19:50:29.015Z,94779.63
2023-04-17T19:53:35.895Z,94777.81
2023-04-17T19:56:38.779Z,94771.25
2023-04-17T19:59:40.837Z,94769.13
2023-04-17T20:02:42.908Z,94765.84
2023-04-17T20:05:45.234Z,94773.88
2023-04-17T20:08:47.409Z,94761.56
2023-04-17T20:11:50.413Z,94762.25
2023-04-17T20:14:52.785Z,94766.00
2023-04-17T20:17:55.635Z,94768.50
2023-04-17T20:20:57.836Z,94762.38
2023-04-17T20:24:00.010Z,94761.78
2023-04-17T20:27:02.263Z,94769.81
2023-04-17T20:30:05.079Z,94771.47
2023-04-17T20:33:07.380Z,94766.72
2023-04-17T20:36:09.408Z,94783.75
2023-04-17T20:39:12.759Z,94779.75
2023-04-17T20:42:15.602Z,94787.72
2023-04-17T20:45:21.423Z,94782.09
2023-04-17T20:48:25.156Z,94792.00
2023-04-17T20:51:27.704Z,94791.66
2023-04-17T20:54:30.006Z,94786.44
2023-04-17T20:57:31.979Z,94790.88
2023-04-17T21:00:34.734Z,94801.25
2023-04-17T21:03:41.691Z,94800.44
2023-04-17T21:06:43.653Z,94801.63
2023-04-17T21:09:45.939Z,94808.00
2023-04-17T21:12:48.176Z,94790.78
2023-04-17T21:15:50.095Z,94793.09
2023-04-17T21:18:52.783Z,94804.22
2023-04-17T21:21:55.771Z,94811.59
2023-04-17T21:24:57.778Z,94811.09
2023-04-17T21:27:59.928Z,94806.84
2023-04-17T21:31:02.138Z,94802.56
2023-04-17T21:34:04.925Z,94785.00
2023-04-17T21:37:07.099Z,94786.09
2023-04-17T21:40:09.858Z,94802.75
2023-04-17T21:43:12.327Z,94791.06
2023-04-17T21:47:33.918Z,94807.69
2023-04-17T21:50:41.360Z,94777.44
2023-04-17T21:53:44.162Z,94800.47
2023-04-17T21:56:49.059Z,94803.47
2023-04-17T21:59:51.238Z,94781.56
2023-04-17T22:02:53.740Z,94799.19
2023-04-17T22:05:57.426Z,94788.00
2023-04-17T22:08:59.844Z,94807.81
2023-04-17T22:12:13.668Z,94805.78
2023-04-17T22:15:15.686Z,94795.94
2023-04-17T22:18:17.774Z,94801.53
2023-04-17T22:21:19.730Z,94791.84
2023-04-17T22:24:21.922Z,94800.84
2023-04-17T22:27:24.138Z,94802.72
2023-04-17T22:30:26.101Z,94806.81
2023-04-17T22:33:28.225Z,94816.41
2023-04-17T22:36:30.127Z,94816.56
2023-04-17T22:39:32.309Z,94815.56
2023-04-17T22:42:34.185Z,94818.00
2023-04-17T22:45:36.096Z,94796.78
2023-04-17T22:48:40.697Z,94808.94
2023-04-17T22:51:43.302Z,94808.31
2023-04-17T22:54:45.266Z,94808.13
2023-04-17T22:57:47.156Z,94807.97
2023-04-17T23:00:49.106Z,94809.13
2023-04-17T23:03:51.067Z,94817.53
2023-04-17T23:06:53.012Z,94821.13
2023-04-17T23:09:54.870Z,94809.28
2023-04-17T23:12:56.911Z,94813.06
2023-04-17T23:16:02.883Z,94812.22
2023-04-17T23:19:05.206Z,94798.41
2023-04-17T23:22:07.349Z,94798.59
2023-04-17T23:25:09.875Z,94813.72
2023-04-17T23:28:11.847Z,94813.06
2023-04-17T23:31:13.741Z,94808.78
2023-04-17T23:34:15.908Z,94805.50
2023-04-17T23:37:18.059Z,94800.19
2023-04-17T23:40:20.085Z,94808.44
2023-04-17T23:43:21.978Z,94803.53
2023-04-17T23:46:24.204Z,94799.25
2023-04-17T23:49:26.084Z,94809.47
2023-04-17T23:52:28.170Z,94810.63
2023-04-17T23:55:30.276Z,94803.72
2023-04-17T23:58:32.306Z,94812.63
